Pagrindinis puslapis
METAR-TAF:

METAR-TAF

Oro uostai :

Kuusamo, Suomija

platuma: 65-58N, ilguma: 029-11E, Aukštis: 262 m

Dabartinis oras

Ataskaita buvo paskelbta 1 valandą ir 3 minutes, ne 03:50 UTC
Vėjas 11 kt iš Pietvakarių
Temperatūra 15°C
Drėgmė 72%
Slėgis 1004 hPa
Matomumas 10 km arba daugiau
Su prošvaistėmis ne aukštis 1500 ft

METAR: EFKS 060350Z AUTO 22011KT 9999 BKN015 15/10 Q1004

Laikas: 07:53 (04:53 UTC)

Prognozė

Ataskaita buvo paskelbta 11 valandos ir 31 minutes, ne 17:22 UTC
Prognozė galioja nuo 05 metu 18 UTC su 05 metu 21 UTC
Vėjas 12 kt iš Pietvakarių
Matomumas 10 km arba daugiau
nėra debesų žemiau 1500 m ir nėra kamuolinių lietaus debesų

TAF: EFKS 051722Z 0518/0521 23012KT CAVOK

Orai ataskaitas ir orų prognozės (METAR, TAF).

turimą stotys yra geltonos ir raudonos taškus žemėlapyje.

Perkelti pele per norėdami pamatyti stoties vardą.

Tada spustelėkite, norėdami matyti oro stebėjimo ir prognozės.

Norėdami pakeisti žemėlapį: spustelėkite ant žalios mygtukų su juodo kryžiaus žemyn,; žalią mygtuką su brūkšneliu, jei norite nutolinti; arba žalių rodyklių gretimoms žemėlapius.


METAR-TAF: